sensor_id;sensor_type;location;lat;lon;timestamp;P1;durP1;ratioP1;P2;durP2;ratioP2
22040;SDS011;11184;52.444;13.578;2023-04-30T00:01:57;5.47;;;2.47;;
22040;SDS011;11184;52.444;13.578;2023-04-30T00:04:41;7.22;;;2.58;;
22040;SDS011;11184;52.444;13.578;2023-04-30T00:07:26;10.35;;;3.45;;
22040;SDS011;11184;52.444;13.578;2023-04-30T00:10:11;2.60;;;1.77;;
22040;SDS011;11184;52.444;13.578;2023-04-30T00:12:55;5.30;;;2.88;;
22040;SDS011;11184;52.444;13.578;2023-04-30T00:15:40;4.88;;;2.72;;
22040;SDS011;11184;52.444;13.578;2023-04-30T00:18:24;2.83;;;2.05;;
22040;SDS011;11184;52.444;13.578;2023-04-30T00:21:09;4.45;;;2.08;;
22040;SDS011;11184;52.444;13.578;2023-04-30T00:23:54;4.80;;;2.03;;
22040;SDS011;11184;52.444;13.578;2023-04-30T00:26:38;8.20;;;2.75;;
22040;SDS011;11184;52.444;13.578;2023-04-30T00:29:23;4.97;;;2.08;;
22040;SDS011;11184;52.444;13.578;2023-04-30T00:32:08;5.05;;;2.50;;
22040;SDS011;11184;52.444;13.578;2023-04-30T00:34:52;5.13;;;2.08;;
22040;SDS011;11184;52.444;13.578;2023-04-30T00:37:37;9.32;;;2.78;;
22040;SDS011;11184;52.444;13.578;2023-04-30T00:40:21;3.88;;;2.40;;
22040;SDS011;11184;52.444;13.578;2023-04-30T00:43:06;4.10;;;1.55;;
22040;SDS011;11184;52.444;13.578;2023-04-30T00:45:51;7.53;;;2.17;;
22040;SDS011;11184;52.444;13.578;2023-04-30T00:48:36;4.38;;;1.95;;
22040;SDS011;11184;52.444;13.578;2023-04-30T00:51:20;4.78;;;1.90;;
22040;SDS011;11184;52.444;13.578;2023-04-30T00:54:06;3.22;;;1.67;;
22040;SDS011;11184;52.444;13.578;2023-04-30T00:56:51;7.95;;;2.80;;
22040;SDS011;11184;52.444;13.578;2023-04-30T00:59:36;6.18;;;2.85;;
22040;SDS011;11184;52.444;13.578;2023-04-30T01:02:21;7.10;;;2.13;;
22040;SDS011;11184;52.444;13.578;2023-04-30T01:05:06;3.83;;;2.40;;
22040;SDS011;11184;52.444;13.578;2023-04-30T01:07:51;6.45;;;2.72;;
22040;SDS011;11184;52.444;13.578;2023-04-30T01:10:40;7.70;;;2.92;;
22040;SDS011;11184;52.444;13.578;2023-04-30T01:13:27;7.35;;;2.63;;
22040;SDS011;11184;52.444;13.578;2023-04-30T01:16:14;3.35;;;2.38;;
22040;SDS011;11184;52.444;13.578;2023-04-30T01:19:08;4.55;;;2.58;;
22040;SDS011;11184;52.444;13.578;2023-04-30T01:21:55;11.25;;;3.72;;
22040;SDS011;11184;52.444;13.578;2023-04-30T01:24:48;4.32;;;2.22;;
22040;SDS011;11184;52.444;13.578;2023-04-30T01:30:36;4.65;;;2.38;;
22040;SDS011;11184;52.444;13.578;2023-04-30T01:33:23;3.95;;;2.33;;
22040;SDS011;11184;52.444;13.578;2023-04-30T01:36:18;3.80;;;2.58;;
22040;SDS011;11184;52.444;13.578;2023-04-30T01:39:14;3.28;;;2.60;;
22040;SDS011;11184;52.444;13.578;2023-04-30T01:42:12;5.60;;;3.15;;
22040;SDS011;11184;52.444;13.578;2023-04-30T01:45:05;5.40;;;2.55;;
22040;SDS011;11184;52.444;13.578;2023-04-30T01:48:13;4.25;;;3.05;;
22040;SDS011;11184;52.444;13.578;2023-04-30T01:51:07;6.05;;;2.40;;
22040;SDS011;11184;52.444;13.578;2023-04-30T01:53:52;9.13;;;2.83;;
22040;SDS011;11184;52.444;13.578;2023-04-30T01:56:42;4.53;;;2.30;;
22040;SDS011;11184;52.444;13.578;2023-04-30T01:59:27;13.48;;;3.13;;
22040;SDS011;11184;52.444;13.578;2023-04-30T02:02:12;8.15;;;3.08;;
22040;SDS011;11184;52.444;13.578;2023-04-30T02:04:57;3.30;;;2.50;;
22040;SDS011;11184;52.444;13.578;2023-04-30T02:07:42;5.03;;;2.35;;
22040;SDS011;11184;52.444;13.578;2023-04-30T02:10:28;7.22;;;2.20;;
22040;SDS011;11184;52.444;13.578;2023-04-30T02:13:13;7.80;;;3.28;;
22040;SDS011;11184;52.444;13.578;2023-04-30T02:15:58;14.32;;;2.70;;
22040;SDS011;11184;52.444;13.578;2023-04-30T02:18:43;7.63;;;3.17;;
22040;SDS011;11184;52.444;13.578;2023-04-30T02:21:28;7.63;;;2.42;;
22040;SDS011;11184;52.444;13.578;2023-04-30T02:24:13;6.95;;;2.72;;
22040;SDS011;11184;52.444;13.578;2023-04-30T02:26:58;10.63;;;3.30;;
22040;SDS011;11184;52.444;13.578;2023-04-30T02:29:43;6.40;;;2.92;;
22040;SDS011;11184;52.444;13.578;2023-04-30T02:32:27;8.52;;;3.45;;
22040;SDS011;11184;52.444;13.578;2023-04-30T02:35:12;6.63;;;2.45;;
22040;SDS011;11184;52.444;13.578;2023-04-30T02:37:57;9.75;;;3.50;;
22040;SDS011;11184;52.444;13.578;2023-04-30T02:40:42;6.57;;;2.95;;
22040;SDS011;11184;52.444;13.578;2023-04-30T02:43:26;8.93;;;3.83;;
22040;SDS011;11184;52.444;13.578;2023-04-30T02:46:11;5.63;;;2.40;;
22040;SDS011;11184;52.444;13.578;2023-04-30T02:48:55;8.52;;;2.97;;
22040;SDS011;11184;52.444;13.578;2023-04-30T02:51:40;7.65;;;2.85;;
22040;SDS011;11184;52.444;13.578;2023-04-30T02:54:24;7.95;;;3.08;;
22040;SDS011;11184;52.444;13.578;2023-04-30T02:57:09;5.97;;;2.75;;
22040;SDS011;11184;52.444;13.578;2023-04-30T02:59:54;7.82;;;3.65;;
22040;SDS011;11184;52.444;13.578;2023-04-30T03:02:38;10.43;;;3.63;;
22040;SDS011;11184;52.444;13.578;2023-04-30T03:05:23;12.63;;;3.40;;
22040;SDS011;11184;52.444;13.578;2023-04-30T03:08:08;11.20;;;3.10;;
22040;SDS011;11184;52.444;13.578;2023-04-30T03:10:53;9.77;;;3.47;;
22040;SDS011;11184;52.444;13.578;2023-04-30T03:13:37;6.80;;;3.50;;
22040;SDS011;11184;52.444;13.578;2023-04-30T03:16:22;4.47;;;3.35;;
22040;SDS011;11184;52.444;13.578;2023-04-30T03:19:06;6.28;;;3.22;;
22040;SDS011;11184;52.444;13.578;2023-04-30T03:21:51;4.80;;;3.35;;
22040;SDS011;11184;52.444;13.578;2023-04-30T03:24:36;10.57;;;3.53;;
22040;SDS011;11184;52.444;13.578;2023-04-30T03:27:20;10.07;;;3.65;;
22040;SDS011;11184;52.444;13.578;2023-04-30T03:30:05;11.98;;;4.43;;
22040;SDS011;11184;52.444;13.578;2023-04-30T03:32:50;8.32;;;3.55;;
22040;SDS011;11184;52.444;13.578;2023-04-30T03:35:34;6.25;;;3.45;;
22040;SDS011;11184;52.444;13.578;2023-04-30T03:38:19;8.27;;;3.90;;
22040;SDS011;11184;52.444;13.578;2023-04-30T03:41:04;13.80;;;5.03;;
22040;SDS011;11184;52.444;13.578;2023-04-30T03:43:48;6.85;;;3.50;;
22040;SDS011;11184;52.444;13.578;2023-04-30T03:46:33;11.13;;;4.80;;
22040;SDS011;11184;52.444;13.578;2023-04-30T03:49:18;9.77;;;4.13;;
22040;SDS011;11184;52.444;13.578;2023-04-30T03:52:02;11.68;;;3.53;;
22040;SDS011;11184;52.444;13.578;2023-04-30T03:54:48;9.93;;;3.50;;
22040;SDS011;11184;52.444;13.578;2023-04-30T03:57:33;12.45;;;3.75;;
22040;SDS011;11184;52.444;13.578;2023-04-30T04:00:17;5.97;;;3.00;;
22040;SDS011;11184;52.444;13.578;2023-04-30T04:03:02;11.77;;;3.55;;
22040;SDS011;11184;52.444;13.578;2023-04-30T04:05:47;10.93;;;3.30;;
22040;SDS011;11184;52.444;13.578;2023-04-30T04:08:32;8.65;;;4.90;;
22040;SDS011;11184;52.444;13.578;2023-04-30T04:11:17;6.40;;;3.30;;
22040;SDS011;11184;52.444;13.578;2023-04-30T04:14:01;11.38;;;4.30;;
22040;SDS011;11184;52.444;13.578;2023-04-30T04:16:46;11.85;;;4.20;;
22040;SDS011;11184;52.444;13.578;2023-04-30T04:19:31;5.70;;;3.40;;
22040;SDS011;11184;52.444;13.578;2023-04-30T04:22:15;11.15;;;3.55;;
22040;SDS011;11184;52.444;13.578;2023-04-30T04:25:00;6.32;;;3.08;;
22040;SDS011;11184;52.444;13.578;2023-04-30T04:27:45;12.13;;;4.05;;
22040;SDS011;11184;52.444;13.578;2023-04-30T04:30:29;10.88;;;4.32;;
22040;SDS011;11184;52.444;13.578;2023-04-30T04:33:14;8.60;;;4.18;;
22040;SDS011;11184;52.444;13.578;2023-04-30T04:35:59;8.38;;;3.17;;
22040;SDS011;11184;52.444;13.578;2023-04-30T04:38:44;7.38;;;2.88;;
22040;SDS011;11184;52.444;13.578;2023-04-30T04:41:30;7.78;;;4.30;;
22040;SDS011;11184;52.444;13.578;2023-04-30T04:44:18;6.47;;;3.22;;
22040;SDS011;11184;52.444;13.578;2023-04-30T04:47:03;13.70;;;4.25;;
22040;SDS011;11184;52.444;13.578;2023-04-30T04:49:47;16.17;;;3.78;;
22040;SDS011;11184;52.444;13.578;2023-04-30T04:52:32;4.85;;;3.00;;
22040;SDS011;11184;52.444;13.578;2023-04-30T04:55:16;6.13;;;3.47;;
22040;SDS011;11184;52.444;13.578;2023-04-30T04:58:01;6.93;;;3.65;;
22040;SDS011;11184;52.444;13.578;2023-04-30T05:00:45;8.15;;;4.00;;
22040;SDS011;11184;52.444;13.578;2023-04-30T05:03:31;13.25;;;4.93;;
22040;SDS011;11184;52.444;13.578;2023-04-30T05:06:16;8.73;;;3.20;;
22040;SDS011;11184;52.444;13.578;2023-04-30T05:09:00;10.48;;;3.92;;
22040;SDS011;11184;52.444;13.578;2023-04-30T05:11:46;7.00;;;3.38;;
22040;SDS011;11184;52.444;13.578;2023-04-30T05:14:31;5.35;;;3.58;;
22040;SDS011;11184;52.444;13.578;2023-04-30T05:17:16;4.15;;;3.33;;
22040;SDS011;11184;52.444;13.578;2023-04-30T05:20:01;7.03;;;3.50;;
22040;SDS011;11184;52.444;13.578;2023-04-30T05:22:46;8.52;;;4.10;;
22040;SDS011;11184;52.444;13.578;2023-04-30T05:25:30;7.15;;;4.00;;
22040;SDS011;11184;52.444;13.578;2023-04-30T05:28:15;10.20;;;4.97;;
22040;SDS011;11184;52.444;13.578;2023-04-30T05:31:00;13.80;;;4.50;;
22040;SDS011;11184;52.444;13.578;2023-04-30T05:33:44;12.15;;;3.47;;
22040;SDS011;11184;52.444;13.578;2023-04-30T05:36:29;7.07;;;3.05;;
22040;SDS011;11184;52.444;13.578;2023-04-30T05:39:14;9.68;;;3.92;;
22040;SDS011;11184;52.444;13.578;2023-04-30T05:41:59;7.40;;;3.85;;
22040;SDS011;11184;52.444;13.578;2023-04-30T05:44:44;10.68;;;4.68;;
22040;SDS011;11184;52.444;13.578;2023-04-30T05:47:29;14.75;;;4.65;;
22040;SDS011;11184;52.444;13.578;2023-04-30T05:50:13;6.40;;;4.15;;
22040;SDS011;11184;52.444;13.578;2023-04-30T05:52:59;16.20;;;4.45;;
22040;SDS011;11184;52.444;13.578;2023-04-30T05:55:44;9.10;;;4.63;;
22040;SDS011;11184;52.444;13.578;2023-04-30T05:58:28;4.68;;;3.65;;
22040;SDS011;11184;52.444;13.578;2023-04-30T06:01:13;7.20;;;3.58;;
22040;SDS011;11184;52.444;13.578;2023-04-30T06:03:58;7.47;;;4.18;;
22040;SDS011;11184;52.444;13.578;2023-04-30T06:06:43;11.38;;;3.60;;
22040;SDS011;11184;52.444;13.578;2023-04-30T06:09:28;9.95;;;4.28;;
22040;SDS011;11184;52.444;13.578;2023-04-30T06:12:12;6.93;;;4.05;;
22040;SDS011;11184;52.444;13.578;2023-04-30T06:14:57;10.65;;;4.55;;
22040;SDS011;11184;52.444;13.578;2023-04-30T06:17:42;9.23;;;4.20;;
22040;SDS011;11184;52.444;13.578;2023-04-30T06:20:26;8.13;;;4.00;;
22040;SDS011;11184;52.444;13.578;2023-04-30T06:23:11;11.25;;;4.95;;
22040;SDS011;11184;52.444;13.578;2023-04-30T06:25:56;10.18;;;5.03;;
22040;SDS011;11184;52.444;13.578;2023-04-30T06:28:40;11.30;;;4.45;;
22040;SDS011;11184;52.444;13.578;2023-04-30T06:31:25;8.88;;;3.40;;
22040;SDS011;11184;52.444;13.578;2023-04-30T06:34:10;12.57;;;3.65;;
22040;SDS011;11184;52.444;13.578;2023-04-30T06:36:54;9.52;;;3.30;;
22040;SDS011;11184;52.444;13.578;2023-04-30T06:39:39;13.50;;;4.07;;
22040;SDS011;11184;52.444;13.578;2023-04-30T06:42:24;7.22;;;3.08;;
22040;SDS011;11184;52.444;13.578;2023-04-30T06:45:08;5.60;;;3.20;;
22040;SDS011;11184;52.444;13.578;2023-04-30T06:47:53;10.40;;;4.18;;
22040;SDS011;11184;52.444;13.578;2023-04-30T06:50:38;9.27;;;4.28;;
22040;SDS011;11184;52.444;13.578;2023-04-30T06:53:27;8.63;;;4.32;;
22040;SDS011;11184;52.444;13.578;2023-04-30T06:56:12;11.07;;;3.90;;
22040;SDS011;11184;52.444;13.578;2023-04-30T06:58:56;10.13;;;4.15;;
22040;SDS011;11184;52.444;13.578;2023-04-30T07:01:41;9.68;;;4.00;;
22040;SDS011;11184;52.444;13.578;2023-04-30T07:04:26;11.93;;;3.60;;
22040;SDS011;11184;52.444;13.578;2023-04-30T07:07:11;6.25;;;3.90;;
22040;SDS011;11184;52.444;13.578;2023-04-30T07:09:55;4.43;;;3.78;;
22040;SDS011;11184;52.444;13.578;2023-04-30T07:12:40;12.43;;;4.82;;
22040;SDS011;11184;52.444;13.578;2023-04-30T07:15:25;9.60;;;3.63;;
22040;SDS011;11184;52.444;13.578;2023-04-30T07:18:09;6.55;;;3.65;;
22040;SDS011;11184;52.444;13.578;2023-04-30T07:20:54;10.80;;;4.68;;
22040;SDS011;11184;52.444;13.578;2023-04-30T07:23:39;8.38;;;4.03;;
22040;SDS011;11184;52.444;13.578;2023-04-30T07:26:23;10.20;;;4.30;;
22040;SDS011;11184;52.444;13.578;2023-04-30T07:29:09;13.18;;;4.63;;
22040;SDS011;11184;52.444;13.578;2023-04-30T07:31:54;11.55;;;4.78;;
22040;SDS011;11184;52.444;13.578;2023-04-30T07:34:41;9.43;;;4.93;;
22040;SDS011;11184;52.444;13.578;2023-04-30T07:37:26;10.25;;;3.53;;
22040;SDS011;11184;52.444;13.578;2023-04-30T07:40:11;15.13;;;4.90;;
22040;SDS011;11184;52.444;13.578;2023-04-30T07:42:55;10.73;;;3.38;;
22040;SDS011;11184;52.444;13.578;2023-04-30T07:45:40;10.52;;;3.85;;
22040;SDS011;11184;52.444;13.578;2023-04-30T07:48:25;7.25;;;3.42;;
22040;SDS011;11184;52.444;13.578;2023-04-30T07:51:10;6.53;;;4.03;;
22040;SDS011;11184;52.444;13.578;2023-04-30T07:53:54;10.77;;;3.53;;
22040;SDS011;11184;52.444;13.578;2023-04-30T07:56:38;7.95;;;4.57;;
22040;SDS011;11184;52.444;13.578;2023-04-30T07:59:24;5.60;;;3.85;;
22040;SDS011;11184;52.444;13.578;2023-04-30T08:02:09;11.40;;;4.10;;
22040;SDS011;11184;52.444;13.578;2023-04-30T08:04:53;7.60;;;3.80;;
22040;SDS011;11184;52.444;13.578;2023-04-30T08:07:39;9.02;;;5.13;;
22040;SDS011;11184;52.444;13.578;2023-04-30T08:10:25;7.80;;;3.40;;
22040;SDS011;11184;52.444;13.578;2023-04-30T08:13:09;10.55;;;3.70;;
22040;SDS011;11184;52.444;13.578;2023-04-30T08:15:54;14.13;;;4.80;;
22040;SDS011;11184;52.444;13.578;2023-04-30T08:18:38;5.15;;;2.70;;
22040;SDS011;11184;52.444;13.578;2023-04-30T08:21:26;9.25;;;2.90;;
22040;SDS011;11184;52.444;13.578;2023-04-30T08:24:11;9.80;;;2.72;;
22040;SDS011;11184;52.444;13.578;2023-04-30T08:26:56;4.43;;;2.60;;
22040;SDS011;11184;52.444;13.578;2023-04-30T08:29:41;8.88;;;3.55;;
22040;SDS011;11184;52.444;13.578;2023-04-30T08:32:26;5.45;;;2.90;;
22040;SDS011;11184;52.444;13.578;2023-04-30T08:35:12;4.15;;;2.47;;
22040;SDS011;11184;52.444;13.578;2023-04-30T08:37:56;8.50;;;2.70;;
22040;SDS011;11184;52.444;13.578;2023-04-30T08:40:41;7.70;;;4.00;;
22040;SDS011;11184;52.444;13.578;2023-04-30T08:43:29;9.25;;;3.08;;
22040;SDS011;11184;52.444;13.578;2023-04-30T08:46:14;10.45;;;2.85;;
22040;SDS011;11184;52.444;13.578;2023-04-30T08:49:00;4.40;;;2.38;;
22040;SDS011;11184;52.444;13.578;2023-04-30T08:51:45;4.13;;;2.47;;
22040;SDS011;11184;52.444;13.578;2023-04-30T08:54:30;5.90;;;2.40;;
22040;SDS011;11184;52.444;13.578;2023-04-30T08:57:15;6.35;;;3.35;;
22040;SDS011;11184;52.444;13.578;2023-04-30T08:59:59;6.90;;;2.78;;
22040;SDS011;11184;52.444;13.578;2023-04-30T09:02:44;4.60;;;2.17;;
22040;SDS011;11184;52.444;13.578;2023-04-30T09:05:29;6.07;;;3.33;;
22040;SDS011;11184;52.444;13.578;2023-04-30T09:08:17;3.22;;;2.13;;
22040;SDS011;11184;52.444;13.578;2023-04-30T09:11:02;4.82;;;2.33;;
22040;SDS011;11184;52.444;13.578;2023-04-30T09:13:54;4.47;;;2.65;;
22040;SDS011;11184;52.444;13.578;2023-04-30T09:16:44;7.68;;;2.33;;
22040;SDS011;11184;52.444;13.578;2023-04-30T09:19:29;11.27;;;2.88;;
22040;SDS011;11184;52.444;13.578;2023-04-30T09:22:21;3.17;;;2.03;;
22040;SDS011;11184;52.444;13.578;2023-04-30T09:25:07;3.17;;;1.73;;
22040;SDS011;11184;52.444;13.578;2023-04-30T09:28:08;5.90;;;2.92;;
22040;SDS011;11184;52.444;13.578;2023-04-30T09:30:53;13.75;;;3.67;;
22040;SDS011;11184;52.444;13.578;2023-04-30T09:33:45;8.20;;;2.45;;
22040;SDS011;11184;52.444;13.578;2023-04-30T09:36:30;5.10;;;1.80;;
22040;SDS011;11184;52.444;13.578;2023-04-30T09:39:15;8.05;;;2.50;;
22040;SDS011;11184;52.444;13.578;2023-04-30T09:42:06;6.15;;;2.95;;
22040;SDS011;11184;52.444;13.578;2023-04-30T09:44:54;9.85;;;3.25;;
22040;SDS011;11184;52.444;13.578;2023-04-30T09:47:39;6.13;;;2.50;;
22040;SDS011;11184;52.444;13.578;2023-04-30T09:50:25;8.27;;;2.35;;
22040;SDS011;11184;52.444;13.578;2023-04-30T09:53:12;3.97;;;2.42;;
22040;SDS011;11184;52.444;13.578;2023-04-30T09:55:57;9.15;;;2.85;;
22040;SDS011;11184;52.444;13.578;2023-04-30T09:58:42;5.25;;;2.15;;
22040;SDS011;11184;52.444;13.578;2023-04-30T10:01:27;5.38;;;1.63;;
22040;SDS011;11184;52.444;13.578;2023-04-30T10:04:12;5.35;;;2.72;;
22040;SDS011;11184;52.444;13.578;2023-04-30T10:06:57;5.20;;;2.15;;
22040;SDS011;11184;52.444;13.578;2023-04-30T10:09:56;3.58;;;1.67;;
22040;SDS011;11184;52.444;13.578;2023-04-30T10:12:49;7.13;;;2.30;;
22040;SDS011;11184;52.444;13.578;2023-04-30T10:15:38;4.22;;;2.55;;
22040;SDS011;11184;52.444;13.578;2023-04-30T10:18:33;5.93;;;1.75;;
22040;SDS011;11184;52.444;13.578;2023-04-30T10:21:22;7.97;;;2.25;;
22040;SDS011;11184;52.444;13.578;2023-04-30T10:24:11;3.83;;;2.28;;
22040;SDS011;11184;52.444;13.578;2023-04-30T10:26:56;4.72;;;2.05;;
22040;SDS011;11184;52.444;13.578;2023-04-30T10:29:41;4.43;;;2.20;;
22040;SDS011;11184;52.444;13.578;2023-04-30T10:32:28;8.60;;;2.30;;
22040;SDS011;11184;52.444;13.578;2023-04-30T10:35:16;4.38;;;2.17;;
22040;SDS011;11184;52.444;13.578;2023-04-30T10:38:08;4.63;;;3.58;;
22040;SDS011;11184;52.444;13.578;2023-04-30T10:40:56;3.38;;;2.03;;
22040;SDS011;11184;52.444;13.578;2023-04-30T10:43:41;2.55;;;2.08;;
22040;SDS011;11184;52.444;13.578;2023-04-30T10:46:25;2.88;;;1.60;;
22040;SDS011;11184;52.444;13.578;2023-04-30T10:49:11;4.20;;;2.60;;
22040;SDS011;11184;52.444;13.578;2023-04-30T10:52:00;5.68;;;2.08;;
22040;SDS011;11184;52.444;13.578;2023-04-30T10:54:48;2.67;;;1.85;;
22040;SDS011;11184;52.444;13.578;2023-04-30T10:57:41;4.15;;;2.05;;
22040;SDS011;11184;52.444;13.578;2023-04-30T11:00:27;3.15;;;2.38;;
22040;SDS011;11184;52.444;13.578;2023-04-30T11:03:12;7.43;;;2.35;;
22040;SDS011;11184;52.444;13.578;2023-04-30T11:05:57;5.70;;;2.67;;
22040;SDS011;11184;52.444;13.578;2023-04-30T11:08:43;6.68;;;3.33;;
22040;SDS011;11184;52.444;13.578;2023-04-30T11:11:32;4.88;;;1.80;;
22040;SDS011;11184;52.444;13.578;2023-04-30T11:14:20;5.68;;;2.42;;
22040;SDS011;11184;52.444;13.578;2023-04-30T11:17:05;4.63;;;2.53;;
22040;SDS011;11184;52.444;13.578;2023-04-30T11:19:51;7.38;;;2.88;;
22040;SDS011;11184;52.444;13.578;2023-04-30T11:22:36;7.38;;;2.50;;
22040;SDS011;11184;52.444;13.578;2023-04-30T11:25:22;4.90;;;1.83;;
22040;SDS011;11184;52.444;13.578;2023-04-30T11:28:07;4.13;;;2.00;;
22040;SDS011;11184;52.444;13.578;2023-04-30T11:30:52;6.15;;;2.28;;
22040;SDS011;11184;52.444;13.578;2023-04-30T11:33:39;3.38;;;2.50;;
22040;SDS011;11184;52.444;13.578;2023-04-30T11:36:23;3.38;;;1.88;;
22040;SDS011;11184;52.444;13.578;2023-04-30T11:39:09;3.90;;;1.63;;
22040;SDS011;11184;52.444;13.578;2023-04-30T11:41:54;3.40;;;1.92;;
22040;SDS011;11184;52.444;13.578;2023-04-30T11:44:38;3.05;;;1.98;;
22040;SDS011;11184;52.444;13.578;2023-04-30T11:47:23;3.50;;;2.10;;
22040;SDS011;11184;52.444;13.578;2023-04-30T11:50:08;4.10;;;2.28;;
22040;SDS011;11184;52.444;13.578;2023-04-30T11:52:55;3.50;;;2.15;;
22040;SDS011;11184;52.444;13.578;2023-04-30T11:55:40;7.93;;;2.80;;
22040;SDS011;11184;52.444;13.578;2023-04-30T11:58:25;4.32;;;2.42;;
22040;SDS011;11184;52.444;13.578;2023-04-30T12:01:11;4.70;;;2.28;;
22040;SDS011;11184;52.444;13.578;2023-04-30T12:03:56;11.75;;;2.70;;
22040;SDS011;11184;52.444;13.578;2023-04-30T12:06:41;4.63;;;2.42;;
22040;SDS011;11184;52.444;13.578;2023-04-30T12:09:25;5.38;;;2.63;;
22040;SDS011;11184;52.444;13.578;2023-04-30T12:12:10;4.18;;;2.30;;
22040;SDS011;11184;52.444;13.578;2023-04-30T12:14:55;3.60;;;2.78;;
22040;SDS011;11184;52.444;13.578;2023-04-30T12:17:40;4.18;;;2.40;;
22040;SDS011;11184;52.444;13.578;2023-04-30T12:20:26;7.55;;;4.15;;
22040;SDS011;11184;52.444;13.578;2023-04-30T12:23:11;4.45;;;2.05;;
22040;SDS011;11184;52.444;13.578;2023-04-30T12:25:58;3.00;;;1.52;;
22040;SDS011;11184;52.444;13.578;2023-04-30T12:28:45;5.88;;;1.95;;
22040;SDS011;11184;52.444;13.578;2023-04-30T12:31:30;7.07;;;2.40;;
22040;SDS011;11184;52.444;13.578;2023-04-30T12:34:16;7.22;;;2.22;;
22040;SDS011;11184;52.444;13.578;2023-04-30T12:37:01;6.95;;;2.15;;
22040;SDS011;11184;52.444;13.578;2023-04-30T12:39:45;5.55;;;2.33;;
22040;SDS011;11184;52.444;13.578;2023-04-30T12:42:31;4.38;;;2.00;;
22040;SDS011;11184;52.444;13.578;2023-04-30T12:48:23;4.72;;;2.30;;
22040;SDS011;11184;52.444;13.578;2023-04-30T12:51:09;3.88;;;2.22;;
22040;SDS011;11184;52.444;13.578;2023-04-30T12:53:54;5.72;;;2.75;;
22040;SDS011;11184;52.444;13.578;2023-04-30T12:56:39;3.63;;;1.80;;
22040;SDS011;11184;52.444;13.578;2023-04-30T13:02:36;5.28;;;1.88;;
22040;SDS011;11184;52.444;13.578;2023-04-30T13:05:22;1.90;;;1.42;;
22040;SDS011;11184;52.444;13.578;2023-04-30T13:08:07;3.25;;;2.25;;
22040;SDS011;11184;52.444;13.578;2023-04-30T13:10:52;7.57;;;2.17;;
22040;SDS011;11184;52.444;13.578;2023-04-30T13:13:37;3.50;;;2.03;;
22040;SDS011;11184;52.444;13.578;2023-04-30T13:16:21;2.30;;;1.42;;
22040;SDS011;11184;52.444;13.578;2023-04-30T13:19:09;5.10;;;1.77;;
22040;SDS011;11184;52.444;13.578;2023-04-30T13:21:54;7.60;;;2.17;;
22040;SDS011;11184;52.444;13.578;2023-04-30T13:24:39;3.80;;;1.92;;
22040;SDS011;11184;52.444;13.578;2023-04-30T13:27:23;4.32;;;1.98;;
22040;SDS011;11184;52.444;13.578;2023-04-30T13:30:08;3.47;;;1.95;;
22040;SDS011;11184;52.444;13.578;2023-04-30T13:32:53;8.63;;;2.20;;
22040;SDS011;11184;52.444;13.578;2023-04-30T13:35:38;5.30;;;2.33;;
22040;SDS011;11184;52.444;13.578;2023-04-30T13:38:22;3.60;;;1.42;;
22040;SDS011;11184;52.444;13.578;2023-04-30T13:41:07;6.10;;;2.53;;
22040;SDS011;11184;52.444;13.578;2023-04-30T13:43:51;4.85;;;2.60;;
22040;SDS011;11184;52.444;13.578;2023-04-30T13:46:36;3.83;;;2.47;;
22040;SDS011;11184;52.444;13.578;2023-04-30T13:49:21;6.00;;;2.20;;
22040;SDS011;11184;52.444;13.578;2023-04-30T13:52:05;4.32;;;2.35;;
22040;SDS011;11184;52.444;13.578;2023-04-30T13:54:50;5.45;;;1.92;;
22040;SDS011;11184;52.444;13.578;2023-04-30T13:57:35;6.72;;;2.95;;
22040;SDS011;11184;52.444;13.578;2023-04-30T14:00:20;7.90;;;1.98;;
22040;SDS011;11184;52.444;13.578;2023-04-30T14:03:04;7.80;;;2.97;;
22040;SDS011;11184;52.444;13.578;2023-04-30T14:05:49;2.85;;;1.50;;
22040;SDS011;11184;52.444;13.578;2023-04-30T14:08:34;5.78;;;1.92;;
22040;SDS011;11184;52.444;13.578;2023-04-30T14:11:18;7.40;;;1.98;;
22040;SDS011;11184;52.444;13.578;2023-04-30T14:14:03;5.65;;;1.90;;
22040;SDS011;11184;52.444;13.578;2023-04-30T14:16:48;2.53;;;1.58;;
22040;SDS011;11184;52.444;13.578;2023-04-30T14:19:33;9.18;;;2.92;;
22040;SDS011;11184;52.444;13.578;2023-04-30T14:22:17;5.20;;;2.58;;
22040;SDS011;11184;52.444;13.578;2023-04-30T14:25:02;4.40;;;1.67;;
22040;SDS011;11184;52.444;13.578;2023-04-30T14:27:46;5.93;;;2.00;;
22040;SDS011;11184;52.444;13.578;2023-04-30T14:30:31;8.52;;;1.88;;
22040;SDS011;11184;52.444;13.578;2023-04-30T14:33:15;3.47;;;2.25;;
22040;SDS011;11184;52.444;13.578;2023-04-30T14:36:00;3.40;;;2.10;;
22040;SDS011;11184;52.444;13.578;2023-04-30T14:38:44;7.72;;;2.47;;
22040;SDS011;11184;52.444;13.578;2023-04-30T14:41:33;7.35;;;2.63;;
22040;SDS011;11184;52.444;13.578;2023-04-30T14:44:18;6.75;;;1.63;;
22040;SDS011;11184;52.444;13.578;2023-04-30T14:47:03;5.03;;;1.90;;
22040;SDS011;11184;52.444;13.578;2023-04-30T14:49:48;4.50;;;2.28;;
22040;SDS011;11184;52.444;13.578;2023-04-30T14:52:34;6.97;;;1.80;;
22040;SDS011;11184;52.444;13.578;2023-04-30T14:55:19;3.92;;;1.80;;
22040;SDS011;11184;52.444;13.578;2023-04-30T14:58:04;2.97;;;1.75;;
22040;SDS011;11184;52.444;13.578;2023-04-30T15:00:49;2.42;;;1.55;;
22040;SDS011;11184;52.444;13.578;2023-04-30T15:03:33;3.25;;;1.92;;
22040;SDS011;11184;52.444;13.578;2023-04-30T15:06:18;3.60;;;1.75;;
22040;SDS011;11184;52.444;13.578;2023-04-30T15:09:03;4.10;;;1.95;;
22040;SDS011;11184;52.444;13.578;2023-04-30T15:11:47;2.42;;;1.52;;
22040;SDS011;11184;52.444;13.578;2023-04-30T15:14:32;7.30;;;2.38;;
22040;SDS011;11184;52.444;13.578;2023-04-30T15:17:16;5.43;;;1.80;;
22040;SDS011;11184;52.444;13.578;2023-04-30T15:20:01;3.50;;;1.60;;
22040;SDS011;11184;52.444;13.578;2023-04-30T15:22:46;4.80;;;1.50;;
22040;SDS011;11184;52.444;13.578;2023-04-30T15:25:31;7.45;;;2.03;;
22040;SDS011;11184;52.444;13.578;2023-04-30T15:28:17;3.47;;;1.48;;
22040;SDS011;11184;52.444;13.578;2023-04-30T15:31:02;2.35;;;1.10;;
22040;SDS011;11184;52.444;13.578;2023-04-30T15:33:48;4.60;;;1.25;;
22040;SDS011;11184;52.444;13.578;2023-04-30T15:36:33;4.75;;;1.80;;
22040;SDS011;11184;52.444;13.578;2023-04-30T15:39:18;4.40;;;1.50;;
22040;SDS011;11184;52.444;13.578;2023-04-30T15:42:04;3.90;;;1.70;;
22040;SDS011;11184;52.444;13.578;2023-04-30T15:44:48;5.72;;;1.88;;
22040;SDS011;11184;52.444;13.578;2023-04-30T15:47:33;2.45;;;1.63;;
22040;SDS011;11184;52.444;13.578;2023-04-30T15:50:17;7.32;;;1.90;;
22040;SDS011;11184;52.444;13.578;2023-04-30T15:53:02;2.63;;;1.52;;
22040;SDS011;11184;52.444;13.578;2023-04-30T15:55:47;6.32;;;3.85;;
22040;SDS011;11184;52.444;13.578;2023-04-30T15:58:32;2.65;;;1.90;;
22040;SDS011;11184;52.444;13.578;2023-04-30T16:01:16;3.80;;;1.52;;
22040;SDS011;11184;52.444;13.578;2023-04-30T16:04:01;5.18;;;1.67;;
22040;SDS011;11184;52.444;13.578;2023-04-30T16:06:46;2.22;;;1.13;;
22040;SDS011;11184;52.444;13.578;2023-04-30T16:09:32;4.60;;;1.85;;
22040;SDS011;11184;52.444;13.578;2023-04-30T16:12:17;4.72;;;1.70;;
22040;SDS011;11184;52.444;13.578;2023-04-30T16:15:01;4.72;;;2.03;;
22040;SDS011;11184;52.444;13.578;2023-04-30T16:17:49;7.93;;;1.55;;
22040;SDS011;11184;52.444;13.578;2023-04-30T16:20:35;3.38;;;1.38;;
22040;SDS011;11184;52.444;13.578;2023-04-30T16:23:19;5.13;;;1.98;;
22040;SDS011;11184;52.444;13.578;2023-04-30T16:26:04;3.38;;;1.77;;
22040;SDS011;11184;52.444;13.578;2023-04-30T16:28:49;2.97;;;1.23;;
22040;SDS011;11184;52.444;13.578;2023-04-30T16:31:34;3.85;;;1.95;;